Time;durP1;ratioP1;P1;durP2;ratioP2;P2;SDS_P1;SDS_P2;PMS_P1;PMS_P2;Temp;Humidity;BMP_temperature;BMP_pressure;BME280_temperature;BME280_humidity;BME280_pressure;Samples;Min_cycle;Max_cycle;Signal;HPM_P1;HPM_P2
2023/03/25 00:00:43;;;;;;;4.13;3.90;;;9.00;71.10;;;;;;6263528;28;20242;-85
2023/03/25 00:03:49;;;;;;;4.00;3.90;;;9.00;71.40;;;;;;6262926;28;20238;-81
2023/03/25 00:06:56;;;;;;;4.27;3.90;;;8.80;72.20;;;;;;6248739;28;20233;-83
2023/03/25 00:09:59;;;;;;;4.40;4.20;;;8.80;72.50;;;;;;6253495;28;20291;-82
2023/03/25 00:13:05;;;;;;;3.83;3.70;;;8.70;72.60;;;;;;6256289;28;20411;-85
2023/03/25 00:16:09;;;;;;;4.20;4.00;;;8.70;72.70;;;;;;6250853;28;20797;-82
2023/03/25 00:19:13;;;;;;;4.33;4.13;;;8.60;72.80;;;;;;6246986;28;20746;-83
2023/03/25 00:22:16;;;;;;;3.90;3.73;;;8.60;73.10;;;;;;6254296;28;20253;-84
2023/03/25 00:25:20;;;;;;;3.47;3.37;;;8.60;73.00;;;;;;6255150;28;20238;-84
2023/03/25 00:28:27;;;;;;;3.40;3.30;;;8.50;73.00;;;;;;6253679;28;20630;-82
2023/03/25 00:31:30;;;;;;;3.73;3.50;;;8.50;73.20;;;;;;6286381;28;20433;-80
2023/03/25 00:34:34;;;;;;;3.83;3.63;;;8.50;73.20;;;;;;6305669;28;20285;-80
2023/03/25 00:37:37;;;;;;;4.20;3.83;;;8.50;73.00;;;;;;6280173;28;20253;-79
2023/03/25 00:40:41;;;;;;;4.13;4.03;;;8.50;73.00;;;;;;6288737;28;20222;-80
2023/03/25 00:43:46;;;;;;;3.97;3.70;;;8.50;73.20;;;;;;6263702;28;20245;-84
2023/03/25 00:46:49;;;;;;;3.50;3.37;;;8.40;73.30;;;;;;6286170;28;20236;-82
2023/03/25 00:49:53;;;;;;;4.50;4.10;;;8.40;73.40;;;;;;6266585;28;20222;-86
2023/03/25 00:52:56;;;;;;;3.60;3.40;;;8.50;73.20;;;;;;6262524;28;20317;-83
2023/03/25 00:56:00;;;;;;;3.87;3.60;;;8.50;73.30;;;;;;6258847;28;20766;-84
2023/03/25 00:59:04;;;;;;;3.87;3.67;;;8.40;73.30;;;;;;6257405;28;20697;-85
2023/03/25 01:02:10;;;;;;;4.57;3.80;;;8.30;73.70;;;;;;6259012;28;20619;-84
2023/03/25 01:05:13;;;;;;;3.73;3.40;;;8.30;73.90;;;;;;6258694;28;20727;-83
2023/03/25 01:08:18;;;;;;;3.50;3.40;;;8.20;74.10;;;;;;6244882;28;20385;-86
2023/03/25 01:11:23;;;;;;;3.60;3.30;;;8.20;74.00;;;;;;6251405;28;20846;-83
2023/03/25 01:14:28;;;;;;;3.97;3.67;;;8.30;73.90;;;;;;6256566;28;20233;-85
2023/03/25 01:17:31;;;;;;;3.50;3.37;;;8.20;74.20;;;;;;6263389;28;20516;-82
2023/03/25 01:20:34;;;;;;;3.90;3.47;;;8.20;74.00;;;;;;6277689;28;20327;-85
2023/03/25 01:23:37;;;;;;;3.83;3.53;;;8.20;74.00;;;;;;6273324;28;20397;-84
2023/03/25 01:26:42;;;;;;;3.53;3.33;;;8.20;74.10;;;;;;6274475;28;20287;-83
2023/03/25 01:29:47;;;;;;;3.43;3.30;;;8.20;74.00;;;;;;6283654;28;20308;-82
2023/03/25 01:32:50;;;;;;;3.27;3.07;;;8.20;74.00;;;;;;6285448;28;20234;-83
2023/03/25 01:35:53;;;;;;;4.03;3.80;;;8.20;73.90;;;;;;6243506;28;20230;-84
2023/03/25 01:38:58;;;;;;;3.77;3.47;;;8.20;74.20;;;;;;6246260;28;20309;-83
2023/03/25 01:42:01;;;;;;;3.50;3.30;;;8.10;74.20;;;;;;6245340;28;20498;-85
2023/03/25 01:45:19;;;;;;;4.17;3.80;;;8.00;74.30;;;;;;6244915;28;20364;-84
2023/03/25 01:48:26;;;;;;;3.20;3.13;;;8.00;74.40;;;;;;6250724;28;20664;-82
2023/03/25 01:51:34;;;;;;;3.23;3.23;;;8.00;74.40;;;;;;6252486;28;20248;-85
2023/03/25 01:54:37;;;;;;;3.60;3.47;;;8.10;74.30;;;;;;6240629;28;20226;-83
2023/03/25 01:57:45;;;;;;;3.83;3.73;;;8.10;74.20;;;;;;6248613;28;20419;-83
2023/03/25 02:00:50;;;;;;;3.90;3.60;;;8.10;74.10;;;;;;6261284;28;20233;-81
2023/03/25 02:04:01;;;;;;;3.80;3.60;;;8.10;74.00;;;;;;6266264;28;20241;-81
2023/03/25 02:07:07;;;;;;;3.57;3.30;;;8.10;74.00;;;;;;6262104;28;24796;-85
2023/03/25 02:10:12;;;;;;;4.17;3.90;;;8.10;74.00;;;;;;6257681;28;20249;-84
2023/03/25 02:13:16;;;;;;;4.00;3.80;;;8.00;74.20;;;;;;6257587;28;20657;-82
2023/03/25 02:16:28;;;;;;;3.90;3.70;;;8.00;74.30;;;;;;6257548;28;20312;-86
2023/03/25 02:20:07;;;;;;;3.60;3.50;;;8.00;74.50;;;;;;6265195;28;20638;-84
2023/03/25 02:23:33;;;;;;;4.07;3.60;;;8.00;74.50;;;;;;6238987;28;20779;-83
2023/03/25 02:27:12;;;;;;;3.93;3.73;;;8.00;74.70;;;;;;6234759;28;20241;-82
2023/03/25 02:31:05;;;;;;;3.63;3.47;;;8.00;74.70;;;;;;6251682;28;20248;-81
2023/03/25 02:34:38;;;;;;;4.00;3.80;;;8.00;74.80;;;;;;6269424;28;20230;-81
2023/03/25 02:38:08;;;;;;;4.27;3.97;;;8.00;74.90;;;;;;6261485;28;20229;-84
2023/03/25 02:41:16;;;;;;;4.23;4.03;;;8.20;74.60;;;;;;6261026;28;20245;-84
2023/03/25 02:44:29;;;;;;;5.60;3.60;;;8.20;74.60;;;;;;6261037;28;20749;-81
2023/03/25 02:47:36;;;;;;;4.00;3.90;;;8.30;74.30;;;;;;6275380;28;20310;-79
2023/03/25 02:50:43;;;;;;;3.70;3.60;;;8.20;74.30;;;;;;6282907;28;20388;-81
2023/03/25 02:53:50;;;;;;;3.87;3.67;;;8.20;74.40;;;;;;6286311;28;20218;-79
2023/03/25 02:56:56;;;;;;;4.93;4.53;;;8.20;74.40;;;;;;6284194;28;20210;-79
2023/03/25 03:00:01;;;;;;;3.87;3.67;;;8.10;74.60;;;;;;6286344;28;20292;-84
2023/03/25 03:03:06;;;;;;;4.00;3.80;;;8.20;74.60;;;;;;6260277;28;20492;-80
2023/03/25 03:06:16;;;;;;;3.40;3.40;;;8.10;74.70;;;;;;6273924;28;20492;-81
2023/03/25 03:09:31;;;;;;;4.40;3.93;;;8.10;74.80;;;;;;6271141;28;20316;-83
2023/03/25 03:12:49;;;;;;;4.00;3.70;;;8.20;74.80;;;;;;6263926;28;20251;-83
2023/03/25 03:16:03;;;;;;;3.67;3.50;;;8.20;74.70;;;;;;6272610;28;20761;-85
2023/03/25 03:19:20;;;;;;;4.23;3.93;;;8.20;74.70;;;;;;6277171;28;20233;-86
2023/03/25 03:22:39;;;;;;;4.00;3.70;;;8.20;74.50;;;;;;6271890;28;20496;-82
2023/03/25 03:25:50;;;;;;;4.33;4.03;;;8.30;74.40;;;;;;6260677;28;20238;-82
2023/03/25 03:29:02;;;;;;;4.07;3.70;;;8.40;74.30;;;;;;6259250;28;20231;-86
2023/03/25 03:32:08;;;;;;;3.90;3.60;;;8.50;74.00;;;;;;6259911;28;20238;-83
2023/03/25 03:35:17;;;;;;;3.90;3.70;;;8.60;74.40;;;;;;6256742;28;20234;-82
2023/03/25 03:38:24;;;;;;;4.00;3.60;;;8.60;74.70;;;;;;6250759;28;20360;-85
2023/03/25 03:41:36;;;;;;;4.17;3.87;;;8.60;75.40;;;;;;6259368;28;20319;-82
2023/03/25 03:44:41;;;;;;;3.83;3.57;;;8.50;76.00;;;;;;6239769;28;20238;-83
2023/03/25 03:47:49;;;;;;;3.87;3.57;;;8.50;76.20;;;;;;6239514;28;20393;-84
2023/03/25 03:50:56;;;;;;;3.80;3.70;;;8.30;76.70;;;;;;6261201;28;20637;-81
2023/03/25 03:54:06;;;;;;;4.60;3.60;;;8.50;76.60;;;;;;6254709;28;20257;-85
2023/03/25 03:57:20;;;;;;;4.53;4.00;;;8.40;76.80;;;;;;6257858;28;20230;-84
2023/03/25 04:00:29;;;;;;;4.17;3.80;;;8.50;76.70;;;;;;6262245;28;21888;-83
2023/03/25 04:03:38;;;;;;;5.83;3.93;;;8.40;77.20;;;;;;6275578;28;20234;-84
2023/03/25 04:06:45;;;;;;;3.80;3.60;;;8.30;77.50;;;;;;6258819;28;20608;-84
2023/03/25 04:09:57;;;;;;;3.80;3.70;;;8.40;77.60;;;;;;6265497;28;20429;-85
2023/03/25 04:13:04;;;;;;;3.60;3.40;;;8.30;77.80;;;;;;6253755;28;20789;-84
2023/03/25 04:16:08;;;;;;;4.20;3.80;;;8.30;77.80;;;;;;6268111;28;20425;-83
2023/03/25 04:19:12;;;;;;;3.47;3.33;;;8.40;77.60;;;;;;6278800;28;20230;-83
2023/03/25 04:22:18;;;;;;;3.77;3.57;;;8.40;77.80;;;;;;6248054;28;20239;-85
2023/03/25 04:25:24;;;;;;;3.67;3.40;;;8.40;77.60;;;;;;6267058;28;20248;-82
2023/03/25 04:28:30;;;;;;;4.20;3.80;;;8.40;77.70;;;;;;6258953;28;20708;-85
2023/03/25 04:31:33;;;;;;;3.00;3.00;;;8.40;77.70;;;;;;6261066;28;20309;-78
2023/03/25 04:34:36;;;;;;;3.77;3.57;;;8.40;77.70;;;;;;6284846;28;20222;-79
2023/03/25 04:37:40;;;;;;;3.83;3.50;;;8.40;77.50;;;;;;6285156;28;20274;-78
2023/03/25 04:40:45;;;;;;;3.70;3.33;;;8.50;77.20;;;;;;6293101;28;20240;-78
2023/03/25 04:43:50;;;;;;;3.40;3.10;;;8.50;77.10;;;;;;6292973;28;22173;-78
2023/03/25 04:46:54;;;;;;;3.70;3.40;;;8.60;76.90;;;;;;6291269;28;20224;-80
2023/03/25 04:49:57;;;;;;;3.13;3.03;;;8.60;76.90;;;;;;6285188;28;20210;-78
2023/03/25 04:53:00;;;;;;;3.17;3.07;;;8.50;76.90;;;;;;6278089;28;20310;-77
2023/03/25 04:56:11;;;;;;;3.50;3.20;;;8.60;76.50;;;;;;6284216;28;20232;-81
2023/03/25 04:59:17;;;;;;;3.43;3.17;;;8.60;76.20;;;;;;6282077;28;20272;-82
2023/03/25 05:02:22;;;;;;;3.50;3.30;;;8.50;76.30;;;;;;6288538;28;20226;-80
2023/03/25 05:05:26;;;;;;;3.67;3.37;;;8.50;76.50;;;;;;6287286;28;20233;-78
2023/03/25 05:08:29;;;;;;;3.50;3.20;;;8.40;76.40;;;;;;6287601;28;20249;-78
2023/03/25 05:11:34;;;;;;;3.30;3.10;;;8.40;76.40;;;;;;6293391;28;20252;-78
2023/03/25 05:14:39;;;;;;;3.30;3.00;;;8.50;75.80;;;;;;6269176;28;20373;-78
2023/03/25 05:17:48;;;;;;;3.70;3.40;;;8.60;75.40;;;;;;6279917;28;20305;-80
2023/03/25 05:20:52;;;;;;;3.53;3.33;;;8.60;75.50;;;;;;6271988;28;20426;-76
2023/03/25 05:23:56;;;;;;;4.07;3.40;;;8.60;75.40;;;;;;6286242;28;20222;-77
2023/03/25 05:27:01;;;;;;;5.37;3.20;;;8.40;75.50;;;;;;6298629;28;20229;-78
2023/03/25 05:30:07;;;;;;;3.90;3.60;;;8.50;75.40;;;;;;6286347;28;20226;-79
2023/03/25 05:33:10;;;;;;;3.47;3.17;;;8.50;75.30;;;;;;6289034;28;20340;-78
2023/03/25 05:36:15;;;;;;;3.73;3.50;;;8.40;75.40;;;;;;6296572;28;20386;-78
2023/03/25 05:39:46;;;;;;;4.47;3.60;;;8.30;75.70;;;;;;6284857;28;20286;-77
2023/03/25 05:43:05;;;;;;;3.57;3.40;;;8.40;75.40;;;;;;6286151;28;20241;-76
2023/03/25 05:46:09;;;;;;;3.20;3.00;;;8.50;75.30;;;;;;6288911;28;20770;-79
2023/03/25 05:49:13;;;;;;;4.10;3.40;;;8.50;75.20;;;;;;6252325;28;20300;-81
2023/03/25 05:52:16;;;;;;;3.57;3.37;;;8.60;75.10;;;;;;6256208;28;20605;-78
2023/03/25 05:55:22;;;;;;;2.90;2.80;;;8.80;74.50;;;;;;6259960;28;20697;-80
2023/03/25 05:58:25;;;;;;;3.13;3.00;;;8.90;73.80;;;;;;6281754;28;20230;-81
2023/03/25 06:01:32;;;;;;;3.50;3.20;;;8.90;73.90;;;;;;6255926;28;20233;-81
2023/03/25 06:04:40;;;;;;;3.20;3.07;;;8.90;73.80;;;;;;6254691;28;20431;-80
2023/03/25 06:07:44;;;;;;;3.23;3.00;;;8.90;73.30;;;;;;6237358;28;20234;-82
2023/03/25 06:10:47;;;;;;;3.03;2.70;;;8.90;72.70;;;;;;6256984;28;20238;-82
2023/03/25 06:13:51;;;;;;;3.03;2.77;;;8.90;72.80;;;;;;6256453;28;20553;-80
2023/03/25 06:16:57;;;;;;;2.80;2.70;;;9.00;73.00;;;;;;6258282;28;20234;-81
2023/03/25 06:20:05;;;;;;;3.07;2.97;;;9.00;72.10;;;;;;6262009;28;20242;-78
2023/03/25 06:23:08;;;;;;;2.80;2.80;;;9.00;72.50;;;;;;6257111;28;20230;-81
2023/03/25 06:26:11;;;;;;;2.90;2.80;;;9.00;71.90;;;;;;6259897;28;20250;-82
2023/03/25 06:29:15;;;;;;;2.93;2.70;;;9.00;71.90;;;;;;6255459;28;20230;-79
2023/03/25 06:32:19;;;;;;;3.00;2.70;;;9.00;71.10;;;;;;6256358;28;20250;-83
2023/03/25 06:35:22;;;;;;;2.90;2.70;;;9.10;71.10;;;;;;6284737;28;20257;-80
2023/03/25 06:38:28;;;;;;;2.93;2.67;;;9.20;71.00;;;;;;6284411;28;20224;-77
2023/03/25 06:41:34;;;;;;;2.90;2.80;;;9.20;70.90;;;;;;6285921;28;20226;-77
2023/03/25 06:44:37;;;;;;;2.70;2.60;;;9.20;70.80;;;;;;6294292;28;20226;-76
2023/03/25 06:47:42;;;;;;;2.87;2.70;;;9.20;70.70;;;;;;6290536;28;20222;-76
2023/03/25 06:50:45;;;;;;;3.43;2.90;;;9.20;70.80;;;;;;6290718;28;20300;-76
2023/03/25 06:53:48;;;;;;;2.83;2.63;;;9.20;70.70;;;;;;6285379;28;20299;-77
2023/03/25 06:56:52;;;;;;;2.50;2.50;;;9.30;70.50;;;;;;6274636;28;20226;-81
2023/03/25 06:59:55;;;;;;;3.00;2.90;;;9.30;71.00;;;;;;6266197;28;20226;-82
2023/03/25 07:03:00;;;;;;;2.70;2.60;;;9.20;71.00;;;;;;6254372;28;20238;-80
2023/03/25 07:06:04;;;;;;;2.50;2.50;;;9.20;71.00;;;;;;6261193;28;20234;-83
2023/03/25 07:09:08;;;;;;;3.27;3.03;;;9.20;70.90;;;;;;6267509;28;20229;-79
2023/03/25 07:12:11;;;;;;;2.67;2.57;;;9.20;71.40;;;;;;6259140;28;20726;-83
2023/03/25 07:15:15;;;;;;;3.00;2.80;;;9.30;71.10;;;;;;6254509;28;20240;-81
2023/03/25 07:18:21;;;;;;;2.70;2.60;;;9.40;70.90;;;;;;6257722;28;20301;-80
2023/03/25 07:21:25;;;;;;;2.90;2.70;;;9.50;70.30;;;;;;6259578;28;20230;-80
2023/03/25 07:24:28;;;;;;;2.50;2.50;;;9.50;70.60;;;;;;6261432;28;20718;-79
2023/03/25 07:27:31;;;;;;;2.70;2.60;;;9.70;70.50;;;;;;6265843;28;20248;-80
2023/03/25 07:30:34;;;;;;;2.90;2.80;;;9.90;69.70;;;;;;6259475;28;20899;-81
2023/03/25 07:33:39;;;;;;;3.03;2.60;;;10.40;69.00;;;;;;6286382;28;20240;-81
2023/03/25 07:36:42;;;;;;;2.20;2.20;;;10.70;67.20;;;;;;6291943;28;20234;-82
2023/03/25 07:39:45;;;;;;;2.50;2.40;;;10.90;66.70;;;;;;6298223;28;20233;-82
2023/03/25 07:42:48;;;;;;;2.27;2.27;;;10.80;66.10;;;;;;6286766;28;20237;-80
2023/03/25 07:45:51;;;;;;;2.73;2.53;;;10.80;66.10;;;;;;6292517;28;20267;-79
2023/03/25 07:48:56;;;;;;;2.70;2.60;;;10.70;66.20;;;;;;6287312;28;20320;-79
2023/03/25 07:51:59;;;;;;;2.47;2.37;;;10.80;65.10;;;;;;6285818;28;20241;-81
2023/03/25 07:55:02;;;;;;;2.60;2.40;;;10.90;65.40;;;;;;6282067;28;20229;-80
2023/03/25 07:58:05;;;;;;;2.60;2.50;;;10.90;64.90;;;;;;6287538;28;20758;-81
2023/03/25 08:01:08;;;;;;;2.47;2.33;;;10.90;64.50;;;;;;6279597;28;20233;-80
2023/03/25 08:04:13;;;;;;;2.83;2.60;;;10.80;64.00;;;;;;6275514;28;20640;-78
2023/03/25 08:07:16;;;;;;;2.87;2.67;;;10.90;63.70;;;;;;6277024;28;20245;-80
2023/03/25 08:10:20;;;;;;;2.40;2.40;;;10.80;63.90;;;;;;6277157;28;20634;-82
2023/03/25 08:13:23;;;;;;;2.67;2.57;;;10.90;63.40;;;;;;6258900;28;20233;-79
2023/03/25 08:16:26;;;;;;;4.27;2.53;;;10.90;63.50;;;;;;6278568;28;20241;-81
2023/03/25 08:19:30;;;;;;;4.73;2.80;;;10.90;63.60;;;;;;6260034;28;20229;-79
2023/03/25 08:22:36;;;;;;;2.60;2.50;;;11.00;63.50;;;;;;6256726;28;20249;-79
2023/03/25 08:25:40;;;;;;;2.90;2.67;;;11.20;63.20;;;;;;6255561;28;20281;-81
2023/03/25 08:28:46;;;;;;;2.63;2.43;;;11.20;62.50;;;;;;6258973;28;20265;-79
2023/03/25 08:31:51;;;;;;;2.70;2.50;;;11.30;62.20;;;;;;6259473;28;20627;-80
2023/03/25 08:34:56;;;;;;;2.53;2.43;;;11.40;61.60;;;;;;6262127;28;20230;-80
2023/03/25 08:38:04;;;;;;;2.50;2.40;;;11.50;60.70;;;;;;6259366;28;20617;-83
2023/03/25 08:41:07;;;;;;;2.20;2.20;;;11.50;61.00;;;;;;6252592;28;20237;-81
2023/03/25 08:44:10;;;;;;;2.60;2.50;;;11.50;60.90;;;;;;6262647;28;20234;-80
2023/03/25 08:47:14;;;;;;;2.40;2.30;;;11.50;60.60;;;;;;6256932;28;20250;-81
2023/03/25 08:50:18;;;;;;;2.37;2.27;;;11.40;60.60;;;;;;6260449;28;20238;-81
2023/03/25 08:53:22;;;;;;;2.63;2.37;;;11.50;60.70;;;;;;6256091;28;20238;-81
2023/03/25 08:56:24;;;;;;;2.80;2.47;;;11.50;60.90;;;;;;6253541;28;20238;-79
2023/03/25 08:59:28;;;;;;;2.30;2.20;;;11.70;59.90;;;;;;6258437;28;20617;-78
2023/03/25 09:02:31;;;;;;;3.63;2.53;;;11.70;60.50;;;;;;6235856;28;20238;-79
2023/03/25 09:05:37;;;;;;;2.70;2.53;;;11.50;60.20;;;;;;6255823;28;20860;-79
2023/03/25 09:08:40;;;;;;;2.50;2.30;;;11.30;60.50;;;;;;6251117;28;20249;-77
2023/03/25 09:11:44;;;;;;;2.20;2.10;;;11.10;61.20;;;;;;6247907;28;20238;-77
2023/03/25 09:14:47;;;;;;;2.63;2.53;;;11.10;60.50;;;;;;6253284;28;20234;-77
2023/03/25 09:17:50;;;;;;;2.40;2.30;;;11.20;60.20;;;;;;6243622;28;20616;-81
2023/03/25 09:20:59;;;;;;;2.77;2.30;;;11.30;60.40;;;;;;6245710;28;20269;-81
2023/03/25 09:24:02;;;;;;;2.10;2.10;;;11.50;59.70;;;;;;6248863;28;20230;-79
2023/03/25 09:27:05;;;;;;;2.30;2.20;;;11.70;59.20;;;;;;6251373;28;20618;-81
2023/03/25 09:30:09;;;;;;;2.37;2.27;;;11.70;58.60;;;;;;6247721;28;20257;-78
2023/03/25 09:33:13;;;;;;;2.33;2.23;;;11.80;59.20;;;;;;6257505;28;20236;-78
2023/03/25 09:36:17;;;;;;;2.30;2.20;;;11.90;58.70;;;;;;6256825;28;20233;-78
2023/03/25 09:39:21;;;;;;;2.53;2.43;;;11.90;58.40;;;;;;6260381;28;20234;-77
2023/03/25 09:42:40;;;;;;;2.23;2.20;;;11.80;58.40;;;;;;6257149;28;20443;-79
2023/03/25 09:45:45;;;;;;;2.43;2.33;;;11.60;58.50;;;;;;6260524;28;20230;-79
2023/03/25 09:48:50;;;;;;;2.40;2.40;;;11.50;58.70;;;;;;6255161;28;20237;-79
2023/03/25 09:51:55;;;;;;;2.30;2.20;;;11.40;58.70;;;;;;6256863;28;20639;-78
2023/03/25 09:55:02;;;;;;;2.73;2.50;;;11.40;59.10;;;;;;6253909;28;20242;-78
2023/03/25 09:58:23;;;;;;;2.60;2.57;;;11.40;58.70;;;;;;6242995;28;20291;-78
2023/03/25 10:01:37;;;;;;;2.40;2.30;;;11.30;58.40;;;;;;6240749;28;20235;-79
2023/03/25 10:04:52;;;;;;;4.00;3.90;;;11.40;58.50;;;;;;6249716;28;20230;-78
2023/03/25 10:08:15;;;;;;;2.20;2.20;;;11.70;57.80;;;;;;6254883;28;20241;-77
2023/03/25 10:11:30;;;;;;;2.27;2.27;;;11.70;57.20;;;;;;6282580;28;20243;-80
2023/03/25 10:14:42;;;;;;;2.40;2.30;;;11.70;57.60;;;;;;6240243;28;20227;-76
2023/03/25 10:18:01;;;;;;;2.47;2.47;;;11.70;57.20;;;;;;6236752;28;20260;-78
2023/03/25 10:21:10;;;;;;;2.17;2.10;;;11.70;57.60;;;;;;6257753;28;20706;-79
2023/03/25 10:24:20;;;;;;;2.17;2.17;;;11.70;57.30;;;;;;6252395;28;20722;-79
2023/03/25 10:27:32;;;;;;;2.40;2.30;;;11.70;57.10;;;;;;6259397;28;20253;-77
2023/03/25 10:30:41;;;;;;;2.40;2.30;;;11.80;57.70;;;;;;6245963;28;20329;-77
2023/03/25 10:33:53;;;;;;;2.33;2.23;;;12.00;56.80;;;;;;6248816;28;20238;-78
2023/03/25 10:37:03;;;;;;;2.07;2.07;;;12.20;56.40;;;;;;6256950;28;20236;-78
2023/03/25 10:40:26;;;;;;;2.10;2.00;;;12.50;56.10;;;;;;6240067;28;20238;-80
2023/03/25 10:43:32;;;;;;;2.60;2.50;;;12.60;55.30;;;;;;6277352;28;20229;-78
2023/03/25 10:46:46;;;;;;;2.27;2.20;;;12.70;55.30;;;;;;6266799;28;20240;-78
2023/03/25 10:49:51;;;;;;;2.33;2.13;;;12.70;55.40;;;;;;6268403;28;20234;-78
2023/03/25 10:52:56;;;;;;;2.37;2.30;;;12.80;54.90;;;;;;6248653;28;20393;-76
2023/03/25 10:56:04;;;;;;;2.50;2.40;;;12.80;55.00;;;;;;6258473;28;20243;-79
2023/03/25 10:59:17;;;;;;;2.40;2.30;;;12.80;55.10;;;;;;6267081;28;20605;-78
2023/03/25 11:02:24;;;;;;;2.40;2.30;;;12.90;55.00;;;;;;6246307;28;20245;-77
2023/03/25 11:06:01;;;;;;;;;;;;;;;;;;;;;
2023/03/25 11:09:24;;;;;;;2.60;2.20;;;13.50;54.60;;;;;;6261154;28;20852;-78
2023/03/25 11:12:33;;;;;;;2.33;2.23;;;13.50;54.00;;;;;;6257927;28;20357;-77
2023/03/25 11:15:46;;;;;;;2.50;2.30;;;13.50;54.50;;;;;;6255913;28;20222;-76
2023/03/25 11:18:53;;;;;;;2.40;2.30;;;13.40;54.40;;;;;;6258054;28;20783;-77
2023/03/25 11:22:00;;;;;;;1.90;1.90;;;13.30;54.60;;;;;;6256263;28;20230;-80
2023/03/25 11:25:06;;;;;;;2.20;2.20;;;13.40;54.60;;;;;;6253433;28;20639;-76
2023/03/25 11:28:15;;;;;;;1.90;1.90;;;13.30;54.70;;;;;;6260016;28;20250;-78
2023/03/25 11:31:22;;;;;;;2.30;2.20;;;13.30;54.80;;;;;;6236406;28;20231;-78
2023/03/25 11:34:26;;;;;;;2.73;2.30;;;13.10;54.70;;;;;;6258587;28;20626;-79
2023/03/25 11:37:31;;;;;;;2.20;2.10;;;12.50;55.60;;;;;;6253561;28;20233;-79
2023/03/25 11:40:35;;;;;;;2.20;2.10;;;12.60;55.90;;;;;;6253420;28;20722;-77
2023/03/25 11:43:40;;;;;;;2.20;2.10;;;12.80;55.30;;;;;;6259186;28;20241;-78
2023/03/25 11:46:46;;;;;;;2.40;2.30;;;12.80;55.20;;;;;;6262859;28;20242;-77
2023/03/25 11:49:52;;;;;;;2.43;2.20;;;12.80;56.20;;;;;;6255617;28;20271;-79
2023/03/25 11:52:57;;;;;;;2.20;2.10;;;12.80;57.00;;;;;;6263350;28;20233;-77
2023/03/25 11:56:04;;;;;;;2.10;2.00;;;12.80;56.30;;;;;;6265773;28;20246;-78
2023/03/25 11:59:17;;;;;;;2.07;2.07;;;13.00;55.90;;;;;;6272380;28;20697;-75
2023/03/25 12:02:26;;;;;;;2.20;2.10;;;12.90;56.00;;;;;;6260822;28;20230;-76
2023/03/25 12:05:29;;;;;;;2.20;2.10;;;12.90;55.70;;;;;;6262079;28;20233;-77
2023/03/25 12:08:43;;;;;;;2.27;2.17;;;13.10;55.80;;;;;;6265882;28;20237;-77
2023/03/25 12:11:53;;;;;;;2.40;2.30;;;13.20;55.70;;;;;;6285744;28;20243;-78
2023/03/25 12:15:11;;;;;;;2.27;2.20;;;13.10;55.50;;;;;;6263024;28;20260;-80
2023/03/25 12:18:33;;;;;;;2.90;2.77;;;13.00;55.60;;;;;;6277014;28;20249;-78
2023/03/25 12:21:55;;;;;;;2.30;2.20;;;12.90;56.10;;;;;;6258917;28;20230;-78
2023/03/25 12:25:25;;;;;;;2.20;2.10;;;12.90;56.10;;;;;;6254196;28;20265;-77
2023/03/25 12:28:59;;;;;;;2.20;2.20;;;13.10;55.80;;;;;;6259680;28;20230;-77
2023/03/25 12:32:17;;;;;;;2.10;2.10;;;12.90;55.80;;;;;;6239462;28;20242;-77
2023/03/25 12:35:31;;;;;;;1.80;1.80;;;12.80;54.90;;;;;;6247967;28;20245;-78
2023/03/25 12:38:45;;;;;;;2.53;2.40;;;12.70;54.50;;;;;;6281217;28;20267;-81
2023/03/25 12:41:59;;;;;;;1.90;1.90;;;12.90;54.20;;;;;;6259528;28;20244;-78
2023/03/25 12:45:25;;;;;;;3.57;2.00;;;12.80;54.40;;;;;;6265731;28;20237;-80
2023/03/25 12:48:50;;;;;;;2.13;2.03;;;12.90;54.60;;;;;;6258622;28;20226;-78
2023/03/25 12:52:03;;;;;;;2.10;2.10;;;12.90;54.80;;;;;;6257206;28;20244;-79
2023/03/25 12:55:33;;;;;;;1.93;1.93;;;12.90;54.50;;;;;;6261555;28;20601;-79
2023/03/25 12:59:01;;;;;;;1.90;1.90;;;13.00;53.90;;;;;;6279586;28;20641;-78
2023/03/25 13:02:17;;;;;;;2.07;2.07;;;12.90;54.60;;;;;;6260662;28;20757;-77
2023/03/25 13:05:29;;;;;;;2.10;1.90;;;13.10;54.40;;;;;;6256745;28;20245;-80
2023/03/25 13:08:38;;;;;;;2.00;2.00;;;13.20;54.70;;;;;;6251005;28;20721;-78
2023/03/25 13:11:45;;;;;;;2.03;2.00;;;13.00;55.50;;;;;;6255355;28;20237;-78
2023/03/25 13:14:55;;;;;;;3.83;3.37;;;12.70;56.10;;;;;;6279357;28;20225;-80
2023/03/25 13:18:03;;;;;;;1.90;1.90;;;12.50;56.60;;;;;;6280179;28;20744;-78
2023/03/25 13:21:11;;;;;;;2.40;2.37;;;12.30;57.20;;;;;;6281022;28;20375;-79
2023/03/25 13:24:20;;;;;;;2.17;2.07;;;12.20;58.20;;;;;;6243830;28;20237;-78
2023/03/25 13:27:24;;;;;;;2.10;2.10;;;11.90;62.10;;;;;;6256774;28;20241;-78
2023/03/25 13:30:33;;;;;;;1.90;1.90;;;11.50;64.00;;;;;;6251631;28;20828;-78
2023/03/25 13:33:41;;;;;;;1.97;1.97;;;11.40;64.70;;;;;;6260186;28;20226;-79
2023/03/25 13:36:56;;;;;;;2.10;2.10;;;11.00;65.20;;;;;;6266856;28;20796;-80
2023/03/25 13:40:17;;;;;;;5.80;5.00;;;10.70;66.10;;;;;;6250741;28;20732;-79
2023/03/25 13:43:28;;;;;;;2.03;1.93;;;10.40;67.80;;;;;;6272774;28;20238;-80
2023/03/25 13:46:36;;;;;;;1.87;1.87;;;10.10;68.00;;;;;;6253523;28;20291;-81
2023/03/25 13:49:45;;;;;;;2.20;2.20;;;10.00;68.00;;;;;;6244539;28;20631;-79
2023/03/25 13:53:06;;;;;;;2.00;2.00;;;9.80;68.30;;;;;;6253023;28;24791;-79
2023/03/25 13:56:33;;;;;;;2.00;2.00;;;9.80;68.30;;;;;;6259555;28;20330;-81
2023/03/25 14:00:04;;;;;;;2.07;2.07;;;9.80;69.00;;;;;;6271234;28;20233;-82
2023/03/25 14:03:44;;;;;;;2.30;2.20;;;9.80;68.90;;;;;;6268907;28;20245;-79
2023/03/25 14:07:11;;;;;;;2.10;2.10;;;9.80;68.70;;;;;;6252850;28;20320;-81
2023/03/25 14:10:30;;;;;;;2.20;2.20;;;10.00;68.40;;;;;;6262429;28;20269;-80
2023/03/25 14:13:39;;;;;;;2.40;2.40;;;10.00;69.00;;;;;;6256050;28;20742;-84
2023/03/25 14:16:45;;;;;;;2.53;2.40;;;10.10;68.10;;;;;;6252290;28;20384;-83
2023/03/25 14:19:54;;;;;;;2.50;2.40;;;10.20;68.80;;;;;;6251041;28;20230;-80
2023/03/25 14:22:59;;;;;;;2.30;2.30;;;10.20;68.50;;;;;;6253174;28;20269;-79
2023/03/25 14:26:08;;;;;;;2.40;2.40;;;10.30;68.00;;;;;;6251390;28;20607;-77
2023/03/25 14:29:31;;;;;;;2.27;2.20;;;10.50;66.70;;;;;;6261895;28;20404;-80
2023/03/25 14:32:37;;;;;;;2.60;2.50;;;10.60;67.20;;;;;;6275381;28;20234;-80
2023/03/25 14:36:01;;;;;;;2.40;2.40;;;10.80;66.80;;;;;;6275992;28;20233;-80
2023/03/25 14:39:11;;;;;;;2.57;2.53;;;11.00;64.80;;;;;;6251242;28;20702;-80
2023/03/25 14:42:28;;;;;;;2.43;2.43;;;11.00;64.70;;;;;;6278003;28;20253;-80
2023/03/25 14:45:44;;;;;;;2.50;2.50;;;11.10;63.40;;;;;;6288016;28;20241;-78
2023/03/25 14:48:51;;;;;;;2.20;2.20;;;11.10;64.30;;;;;;6287972;28;20498;-81
2023/03/25 14:51:58;;;;;;;2.60;2.50;;;11.30;63.40;;;;;;6269791;28;20300;-80
2023/03/25 14:55:07;;;;;;;2.70;2.60;;;11.50;63.30;;;;;;6268921;28;20457;-77
2023/03/25 14:58:20;;;;;;;2.60;2.40;;;11.50;63.20;;;;;;6274878;28;20229;-81
2023/03/25 15:01:30;;;;;;;2.70;2.50;;;11.80;62.90;;;;;;6253813;28;20261;-78
2023/03/25 15:04:40;;;;;;;2.43;2.33;;;11.70;63.10;;;;;;6283304;28;20596;-79
2023/03/25 15:07:53;;;;;;;2.30;2.23;;;11.70;63.90;;;;;;6286591;28;20507;-82
2023/03/25 15:11:15;;;;;;;2.57;2.47;;;11.70;64.00;;;;;;6242401;28;20234;-79
2023/03/25 15:14:36;;;;;;;3.67;3.37;;;11.70;64.10;;;;;;6248151;28;20287;-82
2023/03/25 15:17:44;;;;;;;2.10;2.10;;;11.70;63.70;;;;;;6268318;28;20237;-81
2023/03/25 15:20:48;;;;;;;2.40;2.30;;;11.90;63.30;;;;;;6284971;28;20229;-81
2023/03/25 15:23:59;;;;;;;2.43;2.33;;;11.90;63.30;;;;;;6276798;28;20253;-80
2023/03/25 15:27:11;;;;;;;2.00;2.00;;;11.90;63.10;;;;;;6264660;28;20257;-80
2023/03/25 15:30:40;;;;;;;2.60;2.43;;;11.90;63.10;;;;;;6249683;28;20241;-80
2023/03/25 15:34:03;;;;;;;2.20;2.20;;;11.70;63.80;;;;;;6255577;28;20486;-81
2023/03/25 15:37:39;;;;;;;2.30;2.20;;;11.60;63.50;;;;;;6255823;28;20244;-80
2023/03/25 15:41:02;;;;;;;2.37;2.20;;;11.50;63.80;;;;;;6213732;28;20234;-80
2023/03/25 15:44:38;;;;;;;2.50;2.40;;;11.50;63.50;;;;;;6255927;28;20234;-82
2023/03/25 15:47:53;;;;;;;2.60;2.50;;;11.50;62.90;;;;;;6256162;28;20238;-83
2023/03/25 15:51:13;;;;;;;2.60;2.50;;;11.50;62.80;;;;;;6265027;28;20437;-81
2023/03/25 15:54:31;;;;;;;2.30;2.10;;;11.50;62.50;;;;;;6256919;28;20238;-80
2023/03/25 15:57:38;;;;;;;2.30;2.30;;;11.30;62.70;;;;;;6271016;28;20231;-81
2023/03/25 16:00:45;;;;;;;3.00;2.80;;;11.20;63.10;;;;;;6270574;28;20518;-78
2023/03/25 16:04:00;;;;;;;2.80;2.70;;;11.10;62.70;;;;;;6266143;28;20280;-81
2023/03/25 16:07:05;;;;;;;2.73;2.73;;;11.10;63.20;;;;;;6252706;28;20230;-80
2023/03/25 16:10:17;;;;;;;2.60;2.50;;;11.10;62.50;;;;;;6249013;28;20246;-76
2023/03/25 16:13:44;;;;;;;2.80;2.70;;;11.00;62.60;;;;;;6278525;28;20729;-81
2023/03/25 16:16:51;;;;;;;2.43;2.43;;;11.00;63.20;;;;;;6270140;28;20363;-81
2023/03/25 16:19:57;;;;;;;2.70;2.63;;;11.00;62.70;;;;;;6277301;28;20240;-80
2023/03/25 16:23:02;;;;;;;2.70;2.60;;;11.00;63.70;;;;;;6282702;28;20383;-79
2023/03/25 16:26:06;;;;;;;3.30;3.00;;;10.90;64.80;;;;;;6279166;28;20331;-80
2023/03/25 16:29:16;;;;;;;2.90;2.80;;;10.70;66.10;;;;;;6275649;28;20233;-80
2023/03/25 16:32:21;;;;;;;2.80;2.80;;;10.50;67.10;;;;;;6254887;28;20325;-80